sensor_id;sensor_type;location;lat;lon;timestamp;pressure;altitude;pressure_sealevel;temperature;humidity
72124;BME280;63818;37.134;-8.548;2023-03-20T00:03:16;101812.0;;;17.1;63.2
72124;BME280;63818;37.134;-8.548;2023-03-20T00:08:07;101810.3;;;17.0;63.0
72124;BME280;63818;37.134;-8.548;2023-03-20T00:12:53;101814.9;;;16.9;63.7
72124;BME280;63818;37.134;-8.548;2023-03-20T00:17:42;101803.8;;;16.9;63.6
72124;BME280;63818;37.134;-8.548;2023-03-20T00:22:28;101813.8;;;16.9;64.2
72124;BME280;63818;37.134;-8.548;2023-03-20T00:27:16;101814.8;;;16.8;64.2
72124;BME280;63818;37.134;-8.548;2023-03-20T00:32:04;101804.6;;;16.8;64.4
72124;BME280;63818;37.134;-8.548;2023-03-20T00:36:53;101797.3;;;16.8;64.5
72124;BME280;63818;37.134;-8.548;2023-03-20T00:41:42;101793.8;;;16.8;64.4
72124;BME280;63818;37.134;-8.548;2023-03-20T00:46:34;101787.8;;;16.8;64.3
72124;BME280;63818;37.134;-8.548;2023-03-20T00:51:22;101782.3;;;16.7;64.4
72124;BME280;63818;37.134;-8.548;2023-03-20T00:56:26;101776.8;;;16.7;64.4
72124;BME280;63818;37.134;-8.548;2023-03-20T01:01:13;101768.5;;;16.7;64.5
72124;BME280;63818;37.134;-8.548;2023-03-20T01:06:00;101762.3;;;16.7;64.4
72124;BME280;63818;37.134;-8.548;2023-03-20T01:10:48;101764.6;;;16.7;64.4
72124;BME280;63818;37.134;-8.548;2023-03-20T01:15:35;101763.0;;;16.7;64.4
72124;BME280;63818;37.134;-8.548;2023-03-20T01:20:24;101766.4;;;16.6;64.5
72124;BME280;63818;37.134;-8.548;2023-03-20T01:25:11;101763.9;;;16.5;64.4
72124;BME280;63818;37.134;-8.548;2023-03-20T01:30:00;101766.1;;;16.5;64.3
72124;BME280;63818;37.134;-8.548;2023-03-20T01:34:46;101761.7;;;16.5;64.6
72124;BME280;63818;37.134;-8.548;2023-03-20T01:39:34;101761.4;;;16.5;63.9
72124;BME280;63818;37.134;-8.548;2023-03-20T01:44:23;101757.2;;;16.4;63.7
72124;BME280;63818;37.134;-8.548;2023-03-20T01:54:33;101759.8;;;16.5;63.4
72124;BME280;63818;37.134;-8.548;2023-03-20T01:59:26;101754.2;;;16.4;63.1
72124;BME280;63818;37.134;-8.548;2023-03-20T02:04:14;101736.9;;;16.4;63.1
72124;BME280;63818;37.134;-8.548;2023-03-20T02:09:01;101735.2;;;16.3;63.1
72124;BME280;63818;37.134;-8.548;2023-03-20T02:13:48;101730.4;;;16.3;63.3
72124;BME280;63818;37.134;-8.548;2023-03-20T02:18:39;101736.2;;;16.3;63.3
72124;BME280;63818;37.134;-8.548;2023-03-20T02:24:44;101723.4;;;16.3;63.6
72124;BME280;63818;37.134;-8.548;2023-03-20T02:30:37;101708.9;;;16.3;63.5
72124;BME280;63818;37.134;-8.548;2023-03-20T02:35:57;101696.8;;;16.2;63.3
72124;BME280;63818;37.134;-8.548;2023-03-20T02:40:52;101686.9;;;16.2;63.1
72124;BME280;63818;37.134;-8.548;2023-03-20T02:45:47;101680.2;;;16.2;63.2
72124;BME280;63818;37.134;-8.548;2023-03-20T02:50:38;101682.3;;;16.1;63.4
72124;BME280;63818;37.134;-8.548;2023-03-20T02:55:46;101676.5;;;16.1;63.3
72124;BME280;63818;37.134;-8.548;2023-03-20T03:00:35;101672.1;;;16.1;63.5
72124;BME280;63818;37.134;-8.548;2023-03-20T03:05:58;101668.9;;;16.1;63.9
72124;BME280;63818;37.134;-8.548;2023-03-20T03:10:50;101669.2;;;16.0;64.4
72124;BME280;63818;37.134;-8.548;2023-03-20T03:15:40;101661.4;;;16.0;64.7
72124;BME280;63818;37.134;-8.548;2023-03-20T03:20:29;101656.1;;;16.0;65.1
72124;BME280;63818;37.134;-8.548;2023-03-20T03:25:17;101654.9;;;16.0;65.1
72124;BME280;63818;37.134;-8.548;2023-03-20T03:30:30;101657.2;;;16.0;65.5
72124;BME280;63818;37.134;-8.548;2023-03-20T03:35:20;101667.1;;;15.9;66.0
72124;BME280;63818;37.134;-8.548;2023-03-20T03:40:26;101660.5;;;15.9;66.2
72124;BME280;63818;37.134;-8.548;2023-03-20T03:45:16;101659.8;;;15.9;66.1
72124;BME280;63818;37.134;-8.548;2023-03-20T03:50:23;101668.1;;;15.9;66.6
72124;BME280;63818;37.134;-8.548;2023-03-20T03:55:14;101670.6;;;15.9;66.7
72124;BME280;63818;37.134;-8.548;2023-03-20T04:00:05;101673.5;;;15.8;66.6
72124;BME280;63818;37.134;-8.548;2023-03-20T04:05:13;101666.3;;;15.8;66.9
72124;BME280;63818;37.134;-8.548;2023-03-20T04:10:02;101673.7;;;15.7;67.1
72124;BME280;63818;37.134;-8.548;2023-03-20T04:14:49;101696.4;;;15.6;67.8
72124;BME280;63818;37.134;-8.548;2023-03-20T04:20:40;101696.7;;;15.5;68.5
72124;BME280;63818;37.134;-8.548;2023-03-20T04:25:27;101704.0;;;15.4;68.6
72124;BME280;63818;37.134;-8.548;2023-03-20T04:30:16;101711.2;;;15.3;68.9
72124;BME280;63818;37.134;-8.548;2023-03-20T04:35:02;101702.3;;;15.3;69.1
72124;BME280;63818;37.134;-8.548;2023-03-20T04:39:49;101707.7;;;15.3;69.3
72124;BME280;63818;37.134;-8.548;2023-03-20T04:44:36;101703.1;;;15.3;69.2
72124;BME280;63818;37.134;-8.548;2023-03-20T04:49:48;101712.3;;;15.4;69.4
72124;BME280;63818;37.134;-8.548;2023-03-20T04:54:35;101705.8;;;15.5;69.4
72124;BME280;63818;37.134;-8.548;2023-03-20T04:59:22;101697.9;;;15.5;68.9
72124;BME280;63818;37.134;-8.548;2023-03-20T05:04:53;101695.8;;;15.5;68.8
72124;BME280;63818;37.134;-8.548;2023-03-20T05:09:42;101717.3;;;15.6;69.1
72124;BME280;63818;37.134;-8.548;2023-03-20T05:14:31;101712.0;;;15.5;69.0
72124;BME280;63818;37.134;-8.548;2023-03-20T05:24:37;101707.4;;;15.5;69.3
72124;BME280;63818;37.134;-8.548;2023-03-20T05:29:29;101700.7;;;15.5;70.0
72124;BME280;63818;37.134;-8.548;2023-03-20T05:34:16;101705.2;;;15.5;69.9
72124;BME280;63818;37.134;-8.548;2023-03-20T05:39:27;101706.5;;;15.6;69.9
72124;BME280;63818;37.134;-8.548;2023-03-20T05:44:13;101699.6;;;15.6;69.9
72124;BME280;63818;37.134;-8.548;2023-03-20T05:49:00;101699.8;;;15.5;70.0
72124;BME280;63818;37.134;-8.548;2023-03-20T05:53:49;101702.3;;;15.5;70.2
72124;BME280;63818;37.134;-8.548;2023-03-20T05:59:34;101715.8;;;15.5;70.5
72124;BME280;63818;37.134;-8.548;2023-03-20T06:04:21;101715.4;;;15.5;70.7
72124;BME280;63818;37.134;-8.548;2023-03-20T06:09:06;101723.2;;;15.4;70.7
72124;BME280;63818;37.134;-8.548;2023-03-20T06:13:55;101722.4;;;15.4;70.9
72124;BME280;63818;37.134;-8.548;2023-03-20T06:18:41;101731.3;;;15.4;70.9
72124;BME280;63818;37.134;-8.548;2023-03-20T06:23:30;101732.7;;;15.4;70.6
72124;BME280;63818;37.134;-8.548;2023-03-20T06:28:16;101738.8;;;15.4;70.6
72124;BME280;63818;37.134;-8.548;2023-03-20T06:33:02;101746.4;;;15.3;70.8
72124;BME280;63818;37.134;-8.548;2023-03-20T06:38:41;101737.6;;;15.3;70.8
72124;BME280;63818;37.134;-8.548;2023-03-20T06:43:28;101753.4;;;15.3;70.5
72124;BME280;63818;37.134;-8.548;2023-03-20T06:48:19;101752.9;;;15.2;70.3
72124;BME280;63818;37.134;-8.548;2023-03-20T06:53:23;101754.0;;;15.2;70.3
72124;BME280;63818;37.134;-8.548;2023-03-20T06:58:11;101769.9;;;15.2;70.1
72124;BME280;63818;37.134;-8.548;2023-03-20T07:03:08;101777.3;;;15.2;70.2
72124;BME280;63818;37.134;-8.548;2023-03-20T07:07:54;101790.0;;;15.2;69.9
72124;BME280;63818;37.134;-8.548;2023-03-20T07:12:40;101794.9;;;15.2;69.6
72124;BME280;63818;37.134;-8.548;2023-03-20T07:17:36;101805.9;;;15.2;69.6
72124;BME280;63818;37.134;-8.548;2023-03-20T07:22:25;101813.1;;;15.2;69.5
72124;BME280;63818;37.134;-8.548;2023-03-20T07:36:22;101823.9;;;15.2;68.6
72124;BME280;63818;37.134;-8.548;2023-03-20T07:41:08;101821.2;;;15.2;68.5
72124;BME280;63818;37.134;-8.548;2023-03-20T07:45:54;101827.9;;;15.2;68.5
72124;BME280;63818;37.134;-8.548;2023-03-20T07:50:40;101824.4;;;15.3;68.6
72124;BME280;63818;37.134;-8.548;2023-03-20T07:55:28;101824.6;;;15.4;68.0
72124;BME280;63818;37.134;-8.548;2023-03-20T08:00:15;101831.0;;;15.4;67.8
72124;BME280;63818;37.134;-8.548;2023-03-20T08:05:02;101828.1;;;15.4;68.0
72124;BME280;63818;37.134;-8.548;2023-03-20T08:09:48;101840.4;;;15.5;67.7
72124;BME280;63818;37.134;-8.548;2023-03-20T08:14:34;101841.1;;;15.6;67.5
72124;BME280;63818;37.134;-8.548;2023-03-20T08:19:20;101839.1;;;15.6;67.4
72124;BME280;63818;37.134;-8.548;2023-03-20T08:24:07;101845.6;;;15.7;67.5
72124;BME280;63818;37.134;-8.548;2023-03-20T08:28:53;101845.8;;;15.7;67.7
72124;BME280;63818;37.134;-8.548;2023-03-20T08:34:04;101853.5;;;15.8;67.8
72124;BME280;63818;37.134;-8.548;2023-03-20T08:38:51;101850.6;;;15.8;68.2
72124;BME280;63818;37.134;-8.548;2023-03-20T08:43:37;101858.6;;;15.9;68.8
72124;BME280;63818;37.134;-8.548;2023-03-20T08:48:23;101860.9;;;16.0;69.4
72124;BME280;63818;37.134;-8.548;2023-03-20T08:54:53;101860.7;;;16.0;69.5
72124;BME280;63818;37.134;-8.548;2023-03-20T08:59:40;101863.0;;;16.1;69.4
72124;BME280;63818;37.134;-8.548;2023-03-20T09:04:31;101865.0;;;16.1;69.5
72124;BME280;63818;37.134;-8.548;2023-03-20T09:09:18;101866.6;;;16.1;69.1
72124;BME280;63818;37.134;-8.548;2023-03-20T09:14:06;101867.6;;;16.1;68.8
72124;BME280;63818;37.134;-8.548;2023-03-20T09:18:52;101879.7;;;16.2;68.3
72124;BME280;63818;37.134;-8.548;2023-03-20T09:23:39;101880.7;;;16.2;68.2
72124;BME280;63818;37.134;-8.548;2023-03-20T09:28:28;101884.7;;;16.2;68.6
72124;BME280;63818;37.134;-8.548;2023-03-20T09:33:14;101878.0;;;16.3;68.5
72124;BME280;63818;37.134;-8.548;2023-03-20T09:38:00;101876.2;;;16.3;68.7
72124;BME280;63818;37.134;-8.548;2023-03-20T09:42:50;101879.9;;;16.4;68.8
72124;BME280;63818;37.134;-8.548;2023-03-20T09:47:50;101885.7;;;16.5;69.1
72124;BME280;63818;37.134;-8.548;2023-03-20T09:52:43;101883.4;;;16.5;69.1
72124;BME280;63818;37.134;-8.548;2023-03-20T09:57:36;101890.2;;;16.5;69.3
72124;BME280;63818;37.134;-8.548;2023-03-20T10:02:37;101887.3;;;16.5;69.5
72124;BME280;63818;37.134;-8.548;2023-03-20T10:07:25;101888.4;;;16.6;69.3
72124;BME280;63818;37.134;-8.548;2023-03-20T10:12:29;101896.1;;;16.7;69.1
72124;BME280;63818;37.134;-8.548;2023-03-20T10:17:26;101886.5;;;16.8;68.2
72124;BME280;63818;37.134;-8.548;2023-03-20T10:22:19;101891.1;;;16.9;65.5
72124;BME280;63818;37.134;-8.548;2023-03-20T10:27:16;101891.8;;;16.9;64.5
72124;BME280;63818;37.134;-8.548;2023-03-20T10:32:09;101895.1;;;17.0;63.7
72124;BME280;63818;37.134;-8.548;2023-03-20T10:37:17;101893.8;;;17.1;63.7
72124;BME280;63818;37.134;-8.548;2023-03-20T10:42:15;101892.4;;;17.1;63.4
72124;BME280;63818;37.134;-8.548;2023-03-20T10:48:44;101889.2;;;17.1;63.3
72124;BME280;63818;37.134;-8.548;2023-03-20T10:53:36;101888.0;;;17.2;63.6
72124;BME280;63818;37.134;-8.548;2023-03-20T10:58:43;101888.7;;;17.2;63.7
72124;BME280;63818;37.134;-8.548;2023-03-20T11:03:32;101888.3;;;17.2;63.6
72124;BME280;63818;37.134;-8.548;2023-03-20T11:08:21;101890.7;;;17.2;64.0
72124;BME280;63818;37.134;-8.548;2023-03-20T11:18:17;101881.6;;;17.3;63.9
72124;BME280;63818;37.134;-8.548;2023-03-20T11:23:05;101863.1;;;17.3;63.9
72124;BME280;63818;37.134;-8.548;2023-03-20T11:27:55;101875.9;;;17.3;63.7
72124;BME280;63818;37.134;-8.548;2023-03-20T11:32:45;101867.9;;;17.3;64.0
72124;BME280;63818;37.134;-8.548;2023-03-20T11:37:33;101870.4;;;17.4;64.2
72124;BME280;63818;37.134;-8.548;2023-03-20T11:42:24;101880.6;;;17.4;64.6
72124;BME280;63818;37.134;-8.548;2023-03-20T11:47:14;101874.1;;;17.4;64.1
72124;BME280;63818;37.134;-8.548;2023-03-20T11:52:12;101875.7;;;17.4;64.3
72124;BME280;63818;37.134;-8.548;2023-03-20T11:56:59;101874.6;;;17.5;64.6
72124;BME280;63818;37.134;-8.548;2023-03-20T12:01:51;101886.2;;;17.5;65.2
72124;BME280;63818;37.134;-8.548;2023-03-20T12:06:41;101874.6;;;17.5;64.9
72124;BME280;63818;37.134;-8.548;2023-03-20T12:11:46;101875.8;;;17.5;65.5
72124;BME280;63818;37.134;-8.548;2023-03-20T12:16:34;101878.8;;;17.5;65.5
72124;BME280;63818;37.134;-8.548;2023-03-20T12:21:27;101872.3;;;17.6;65.9
72124;BME280;63818;37.134;-8.548;2023-03-20T12:26:20;101875.4;;;17.6;66.5
72124;BME280;63818;37.134;-8.548;2023-03-20T12:31:17;101873.2;;;17.6;66.4
72124;BME280;63818;37.134;-8.548;2023-03-20T12:36:12;101874.3;;;17.6;66.4
72124;BME280;63818;37.134;-8.548;2023-03-20T12:41:09;101873.5;;;17.6;66.8
72124;BME280;63818;37.134;-8.548;2023-03-20T12:46:02;101866.7;;;17.6;67.1
72124;BME280;63818;37.134;-8.548;2023-03-20T12:56:25;101855.0;;;17.6;67.2
72124;BME280;63818;37.134;-8.548;2023-03-20T13:01:18;101850.4;;;17.6;67.2
72124;BME280;63818;37.134;-8.548;2023-03-20T13:06:08;101846.4;;;17.7;67.7
72124;BME280;63818;37.134;-8.548;2023-03-20T13:11:02;101839.1;;;17.7;67.3
72124;BME280;63818;37.134;-8.548;2023-03-20T13:15:58;101844.0;;;17.8;67.3
72124;BME280;63818;37.134;-8.548;2023-03-20T13:20:50;101826.3;;;17.8;67.7
72124;BME280;63818;37.134;-8.548;2023-03-20T13:25:51;101826.6;;;17.9;67.8
72124;BME280;63818;37.134;-8.548;2023-03-20T13:30:43;101820.8;;;17.9;68.3
72124;BME280;63818;37.134;-8.548;2023-03-20T13:35:33;101814.3;;;18.0;68.5
72124;BME280;63818;37.134;-8.548;2023-03-20T13:40:26;101810.8;;;18.0;68.8
72124;BME280;63818;37.134;-8.548;2023-03-20T13:45:39;101794.6;;;18.0;68.9
72124;BME280;63818;37.134;-8.548;2023-03-20T13:50:38;101796.2;;;18.1;68.8
72124;BME280;63818;37.134;-8.548;2023-03-20T13:55:32;101795.9;;;18.1;68.7
72124;BME280;63818;37.134;-8.548;2023-03-20T14:00:27;101790.7;;;18.1;69.1
72124;BME280;63818;37.134;-8.548;2023-03-20T14:05:39;101794.0;;;18.2;68.6
72124;BME280;63818;37.134;-8.548;2023-03-20T14:10:51;101790.6;;;18.2;69.2
72124;BME280;63818;37.134;-8.548;2023-03-20T14:15:44;101779.4;;;18.3;69.3
72124;BME280;63818;37.134;-8.548;2023-03-20T14:20:58;101783.3;;;18.4;69.2
72124;BME280;63818;37.134;-8.548;2023-03-20T14:25:46;101776.8;;;18.5;69.8
72124;BME280;63818;37.134;-8.548;2023-03-20T14:32:31;101773.4;;;18.5;69.5
72124;BME280;63818;37.134;-8.548;2023-03-20T14:37:29;101764.5;;;18.6;69.5
72124;BME280;63818;37.134;-8.548;2023-03-20T14:42:25;101752.4;;;18.7;68.9
72124;BME280;63818;37.134;-8.548;2023-03-20T14:47:23;101747.3;;;18.8;68.6
72124;BME280;63818;37.134;-8.548;2023-03-20T14:52:24;101741.7;;;19.0;68.0
72124;BME280;63818;37.134;-8.548;2023-03-20T14:57:50;101733.9;;;19.2;67.2
72124;BME280;63818;37.134;-8.548;2023-03-20T15:02:37;101727.0;;;19.5;66.5
72124;BME280;63818;37.134;-8.548;2023-03-20T15:08:49;101720.0;;;20.5;64.4
72124;BME280;63818;37.134;-8.548;2023-03-20T15:13:39;101688.7;;;25.0;52.8
72124;BME280;63818;37.134;-8.548;2023-03-20T15:18:56;101674.0;;;27.3;46.4
72124;BME280;63818;37.134;-8.548;2023-03-20T15:23:44;101652.1;;;28.6;42.3
72124;BME280;63818;37.134;-8.548;2023-03-20T15:28:59;101635.7;;;29.2;40.4
72124;BME280;63818;37.134;-8.548;2023-03-20T15:33:47;101621.4;;;29.6;38.1
72124;BME280;63818;37.134;-8.548;2023-03-20T15:39:03;101621.9;;;29.8;37.7
72124;BME280;63818;37.134;-8.548;2023-03-20T15:43:51;101609.9;;;30.2;35.9
72124;BME280;63818;37.134;-8.548;2023-03-20T15:51:22;101618.4;;;30.5;35.1
72124;BME280;63818;37.134;-8.548;2023-03-20T15:56:14;101603.2;;;31.1;35.0
72124;BME280;63818;37.134;-8.548;2023-03-20T16:01:37;101601.3;;;31.2;34.5
72124;BME280;63818;37.134;-8.548;2023-03-20T16:06:26;101612.2;;;31.3;34.6
72124;BME280;63818;37.134;-8.548;2023-03-20T16:11:15;101596.1;;;31.0;34.1
72124;BME280;63818;37.134;-8.548;2023-03-20T16:23:21;101599.7;;;29.2;36.1
72124;BME280;63818;37.134;-8.548;2023-03-20T16:28:11;101611.9;;;28.4;37.2
72124;BME280;63818;37.134;-8.548;2023-03-20T16:35:05;101623.6;;;27.0;39.3
72124;BME280;63818;37.134;-8.548;2023-03-20T16:40:03;101608.8;;;25.4;41.6
72124;BME280;63818;37.134;-8.548;2023-03-20T16:45:04;101607.2;;;24.7;41.9
72124;BME280;63818;37.134;-8.548;2023-03-20T16:50:11;101625.7;;;24.3;42.3
72124;BME280;63818;37.134;-8.548;2023-03-20T16:57:27;101615.8;;;23.8;41.7
72124;BME280;63818;37.134;-8.548;2023-03-20T17:02:24;101623.4;;;23.6;44.6
72124;BME280;63818;37.134;-8.548;2023-03-20T17:07:13;101621.3;;;23.3;45.7
72124;BME280;63818;37.134;-8.548;2023-03-20T17:12:18;101615.3;;;23.1;44.9
72124;BME280;63818;37.134;-8.548;2023-03-20T17:17:24;101630.7;;;22.9;45.4
72124;BME280;63818;37.134;-8.548;2023-03-20T17:22:14;101634.1;;;22.7;45.6
72124;BME280;63818;37.134;-8.548;2023-03-20T17:27:03;101634.1;;;22.4;45.6
72124;BME280;63818;37.134;-8.548;2023-03-20T17:31:50;101631.5;;;22.3;45.8
72124;BME280;63818;37.134;-8.548;2023-03-20T17:36:36;101631.8;;;22.2;46.3
72124;BME280;63818;37.134;-8.548;2023-03-20T17:41:22;101633.4;;;22.0;47.7
72124;BME280;63818;37.134;-8.548;2023-03-20T17:46:15;101634.8;;;21.8;49.5
72124;BME280;63818;37.134;-8.548;2023-03-20T17:53:29;101630.9;;;21.6;51.5
72124;BME280;63818;37.134;-8.548;2023-03-20T17:58:18;101635.1;;;21.4;51.7
72124;BME280;63818;37.134;-8.548;2023-03-20T18:03:07;101655.7;;;21.1;53.0
72124;BME280;63818;37.134;-8.548;2023-03-20T18:07:55;101656.1;;;20.8;54.2
72124;BME280;63818;37.134;-8.548;2023-03-20T18:12:41;101666.0;;;20.7;54.5
72124;BME280;63818;37.134;-8.548;2023-03-20T18:17:29;101670.5;;;20.6;54.9
72124;BME280;63818;37.134;-8.548;2023-03-20T18:22:15;101671.2;;;20.4;56.0
72124;BME280;63818;37.134;-8.548;2023-03-20T18:27:02;101669.3;;;20.3;56.8
72124;BME280;63818;37.134;-8.548;2023-03-20T18:31:48;101671.6;;;20.2;57.3
72124;BME280;63818;37.134;-8.548;2023-03-20T18:36:34;101673.3;;;20.1;57.2
72124;BME280;63818;37.134;-8.548;2023-03-20T18:41:21;101680.7;;;19.9;56.9
72124;BME280;63818;37.134;-8.548;2023-03-20T18:46:10;101672.0;;;19.8;55.7
72124;BME280;63818;37.134;-8.548;2023-03-20T18:50:57;101685.1;;;19.7;56.7
72124;BME280;63818;37.134;-8.548;2023-03-20T18:55:44;101692.1;;;19.7;58.5
72124;BME280;63818;37.134;-8.548;2023-03-20T19:00:34;101705.8;;;19.7;59.8
72124;BME280;63818;37.134;-8.548;2023-03-20T19:10:22;101705.5;;;19.6;62.5
72124;BME280;63818;37.134;-8.548;2023-03-20T19:15:10;101701.5;;;19.5;63.4
72124;BME280;63818;37.134;-8.548;2023-03-20T19:20:33;101691.6;;;19.4;63.7
72124;BME280;63818;37.134;-8.548;2023-03-20T19:25:19;101696.3;;;19.4;63.8
72124;BME280;63818;37.134;-8.548;2023-03-20T19:30:18;101701.2;;;19.4;64.1
72124;BME280;63818;37.134;-8.548;2023-03-20T19:35:14;101695.0;;;19.3;64.4
72124;BME280;63818;37.134;-8.548;2023-03-20T19:40:03;101694.6;;;19.2;64.6
72124;BME280;63818;37.134;-8.548;2023-03-20T19:44:49;101701.6;;;19.3;64.4
72124;BME280;63818;37.134;-8.548;2023-03-20T19:49:35;101703.4;;;19.2;64.5
72124;BME280;63818;37.134;-8.548;2023-03-20T19:54:26;101708.3;;;19.2;64.4
72124;BME280;63818;37.134;-8.548;2023-03-20T19:59:12;101705.5;;;19.1;64.9
72124;BME280;63818;37.134;-8.548;2023-03-20T20:04:02;101713.0;;;19.0;65.6
72124;BME280;63818;37.134;-8.548;2023-03-20T20:08:48;101712.3;;;19.0;66.2
72124;BME280;63818;37.134;-8.548;2023-03-20T20:13:34;101725.8;;;18.9;66.7
72124;BME280;63818;37.134;-8.548;2023-03-20T20:18:22;101723.2;;;18.8;67.0
72124;BME280;63818;37.134;-8.548;2023-03-20T20:27:58;101736.4;;;18.6;67.9
72124;BME280;63818;37.134;-8.548;2023-03-20T20:32:44;101743.8;;;18.5;68.3
72124;BME280;63818;37.134;-8.548;2023-03-20T20:37:32;101737.1;;;18.4;68.9
72124;BME280;63818;37.134;-8.548;2023-03-20T20:42:18;101743.7;;;18.3;69.1
72124;BME280;63818;37.134;-8.548;2023-03-20T20:47:04;101740.4;;;18.2;69.5
72124;BME280;63818;37.134;-8.548;2023-03-20T20:51:51;101738.3;;;18.3;69.7
72124;BME280;63818;37.134;-8.548;2023-03-20T20:56:37;101736.5;;;18.3;69.0
72124;BME280;63818;37.134;-8.548;2023-03-20T21:01:23;101732.6;;;18.3;68.1
72124;BME280;63818;37.134;-8.548;2023-03-20T21:06:09;101741.1;;;18.3;67.7
72124;BME280;63818;37.134;-8.548;2023-03-20T21:10:56;101741.1;;;18.3;67.6
72124;BME280;63818;37.134;-8.548;2023-03-20T21:15:42;101743.0;;;18.3;67.6
72124;BME280;63818;37.134;-8.548;2023-03-20T21:20:28;101744.3;;;18.3;67.6
72124;BME280;63818;37.134;-8.548;2023-03-20T21:25:14;101744.7;;;18.1;67.7
72124;BME280;63818;37.134;-8.548;2023-03-20T21:30:01;101747.0;;;18.0;68.5
72124;BME280;63818;37.134;-8.548;2023-03-20T21:34:48;101747.8;;;18.0;68.2
72124;BME280;63818;37.134;-8.548;2023-03-20T21:39:33;101751.4;;;17.9;68.6
72124;BME280;63818;37.134;-8.548;2023-03-20T21:44:20;101741.5;;;17.8;68.7
72124;BME280;63818;37.134;-8.548;2023-03-20T21:49:06;101748.3;;;17.7;69.1
72124;BME280;63818;37.134;-8.548;2023-03-20T21:53:52;101740.0;;;17.8;68.4
72124;BME280;63818;37.134;-8.548;2023-03-20T21:58:38;101736.9;;;17.8;67.7
72124;BME280;63818;37.134;-8.548;2023-03-20T22:03:27;101732.7;;;17.9;67.2
72124;BME280;63818;37.134;-8.548;2023-03-20T22:08:13;101724.7;;;17.9;66.0
72124;BME280;63818;37.134;-8.548;2023-03-20T22:12:59;101722.8;;;17.8;65.4
72124;BME280;63818;37.134;-8.548;2023-03-20T22:17:46;101719.7;;;17.8;63.7
72124;BME280;63818;37.134;-8.548;2023-03-20T22:22:34;101704.2;;;17.7;61.4
72124;BME280;63818;37.134;-8.548;2023-03-20T22:27:20;101697.9;;;17.6;60.4
72124;BME280;63818;37.134;-8.548;2023-03-20T22:32:09;101701.7;;;17.6;59.5
72124;BME280;63818;37.134;-8.548;2023-03-20T22:36:55;101695.6;;;17.6;59.5
72124;BME280;63818;37.134;-8.548;2023-03-20T22:41:41;101698.8;;;17.7;59.2
72124;BME280;63818;37.134;-8.548;2023-03-20T22:46:29;101695.5;;;17.7;59.5
72124;BME280;63818;37.134;-8.548;2023-03-20T22:51:15;101690.1;;;17.7;59.0
72124;BME280;63818;37.134;-8.548;2023-03-20T22:56:01;101690.2;;;17.8;58.7
72124;BME280;63818;37.134;-8.548;2023-03-20T23:00:49;101688.8;;;17.8;58.4
72124;BME280;63818;37.134;-8.548;2023-03-20T23:05:37;101676.8;;;17.8;58.8
72124;BME280;63818;37.134;-8.548;2023-03-20T23:10:25;101669.1;;;17.8;58.3
72124;BME280;63818;37.134;-8.548;2023-03-20T23:15:11;101677.4;;;17.8;58.1
72124;BME280;63818;37.134;-8.548;2023-03-20T23:20:00;101680.8;;;17.7;58.3
72124;BME280;63818;37.134;-8.548;2023-03-20T23:24:46;101677.0;;;17.8;57.8
72124;BME280;63818;37.134;-8.548;2023-03-20T23:29:32;101674.3;;;17.8;57.6
72124;BME280;63818;37.134;-8.548;2023-03-20T23:34:18;101666.1;;;17.8;57.1
72124;BME280;63818;37.134;-8.548;2023-03-20T23:39:12;101667.1;;;17.7;56.6
72124;BME280;63818;37.134;-8.548;2023-03-20T23:43:59;101667.8;;;17.7;57.5
72124;BME280;63818;37.134;-8.548;2023-03-20T23:48:45;101661.1;;;17.6;57.7
72124;BME280;63818;37.134;-8.548;2023-03-20T23:53:34;101659.8;;;17.6;58.7
72124;BME280;63818;37.134;-8.548;2023-03-20T23:58:21;101659.0;;;17.6;59.2
